sensor_id;sensor_type;location;lat;lon;timestamp;P1;durP1;ratioP1;P2;durP2;ratioP2
66189;SDS011;52992;52.084;5.412;2022-10-16T00:01:07;6.03;;;2.17;;
66189;SDS011;52992;52.084;5.412;2022-10-16T00:03:40;5.43;;;2.37;;
66189;SDS011;52992;52.084;5.412;2022-10-16T00:06:09;6.23;;;2.73;;
66189;SDS011;52992;52.084;5.412;2022-10-16T00:08:37;5.00;;;2.33;;
66189;SDS011;52992;52.084;5.412;2022-10-16T00:11:06;3.97;;;2.10;;
66189;SDS011;52992;52.084;5.412;2022-10-16T00:13:35;7.00;;;2.43;;
66189;SDS011;52992;52.084;5.412;2022-10-16T00:16:04;5.30;;;2.67;;
66189;SDS011;52992;52.084;5.412;2022-10-16T00:18:32;3.93;;;2.33;;
66189;SDS011;52992;52.084;5.412;2022-10-16T00:21:12;4.10;;;2.50;;
66189;SDS011;52992;52.084;5.412;2022-10-16T00:23:41;8.23;;;2.73;;
66189;SDS011;52992;52.084;5.412;2022-10-16T00:26:09;2.77;;;2.30;;
66189;SDS011;52992;52.084;5.412;2022-10-16T00:28:38;4.80;;;3.10;;
66189;SDS011;52992;52.084;5.412;2022-10-16T00:31:06;4.60;;;2.23;;
66189;SDS011;52992;52.084;5.412;2022-10-16T00:33:35;3.20;;;2.20;;
66189;SDS011;52992;52.084;5.412;2022-10-16T00:36:04;3.40;;;2.53;;
66189;SDS011;52992;52.084;5.412;2022-10-16T00:38:33;4.20;;;2.50;;
66189;SDS011;52992;52.084;5.412;2022-10-16T00:41:00;6.87;;;3.10;;
66189;SDS011;52992;52.084;5.412;2022-10-16T00:46:19;6.37;;;2.70;;
66189;SDS011;52992;52.084;5.412;2022-10-16T00:49:05;6.13;;;3.27;;
66189;SDS011;52992;52.084;5.412;2022-10-16T00:51:42;4.70;;;3.00;;
66189;SDS011;52992;52.084;5.412;2022-10-16T00:54:13;7.13;;;3.20;;
66189;SDS011;52992;52.084;5.412;2022-10-16T00:56:42;5.40;;;2.87;;
66189;SDS011;52992;52.084;5.412;2022-10-16T00:59:15;5.00;;;3.03;;
66189;SDS011;52992;52.084;5.412;2022-10-16T01:01:48;3.93;;;2.90;;
66189;SDS011;52992;52.084;5.412;2022-10-16T01:04:15;6.20;;;3.23;;
66189;SDS011;52992;52.084;5.412;2022-10-16T01:12:32;4.60;;;2.93;;
66189;SDS011;52992;52.084;5.412;2022-10-16T01:15:33;2.97;;;2.57;;
66189;SDS011;52992;52.084;5.412;2022-10-16T01:18:14;4.53;;;3.37;;
66189;SDS011;52992;52.084;5.412;2022-10-16T01:20:59;4.67;;;3.30;;
66189;SDS011;52992;52.084;5.412;2022-10-16T01:23:46;5.23;;;3.50;;
66189;SDS011;52992;52.084;5.412;2022-10-16T01:28:54;4.03;;;3.00;;
66189;SDS011;52992;52.084;5.412;2022-10-16T01:31:30;5.27;;;3.60;;
66189;SDS011;52992;52.084;5.412;2022-10-16T01:36:56;4.80;;;2.90;;
66189;SDS011;52992;52.084;5.412;2022-10-16T01:39:31;8.13;;;3.03;;
66189;SDS011;52992;52.084;5.412;2022-10-16T01:42:03;4.43;;;3.00;;
66189;SDS011;52992;52.084;5.412;2022-10-16T01:44:35;4.13;;;3.20;;
66189;SDS011;52992;52.084;5.412;2022-10-16T01:47:05;5.50;;;2.97;;
66189;SDS011;52992;52.084;5.412;2022-10-16T01:49:36;4.23;;;3.00;;
66189;SDS011;52992;52.084;5.412;2022-10-16T01:52:05;3.83;;;3.03;;
66189;SDS011;52992;52.084;5.412;2022-10-16T01:54:36;5.40;;;3.70;;
66189;SDS011;52992;52.084;5.412;2022-10-16T01:57:06;3.73;;;2.87;;
66189;SDS011;52992;52.084;5.412;2022-10-16T01:59:36;6.13;;;2.87;;
66189;SDS011;52992;52.084;5.412;2022-10-16T02:02:08;4.20;;;3.20;;
66189;SDS011;52992;52.084;5.412;2022-10-16T02:04:39;9.47;;;3.00;;
66189;SDS011;52992;52.084;5.412;2022-10-16T02:07:10;6.27;;;3.40;;
66189;SDS011;52992;52.084;5.412;2022-10-16T02:09:37;5.03;;;3.10;;
66189;SDS011;52992;52.084;5.412;2022-10-16T02:12:15;4.33;;;3.53;;
66189;SDS011;52992;52.084;5.412;2022-10-16T02:14:56;7.47;;;3.07;;
66189;SDS011;52992;52.084;5.412;2022-10-16T02:17:23;4.60;;;3.23;;
66189;SDS011;52992;52.084;5.412;2022-10-16T02:19:52;3.83;;;3.10;;
66189;SDS011;52992;52.084;5.412;2022-10-16T02:25:10;6.90;;;3.00;;
66189;SDS011;52992;52.084;5.412;2022-10-16T02:30:39;6.23;;;3.27;;
66189;SDS011;52992;52.084;5.412;2022-10-16T02:33:17;4.77;;;3.47;;
66189;SDS011;52992;52.084;5.412;2022-10-16T02:35:47;4.80;;;3.43;;
66189;SDS011;52992;52.084;5.412;2022-10-16T02:38:17;6.10;;;3.80;;
66189;SDS011;52992;52.084;5.412;2022-10-16T02:40:44;5.63;;;3.83;;
66189;SDS011;52992;52.084;5.412;2022-10-16T02:43:12;4.83;;;3.50;;
66189;SDS011;52992;52.084;5.412;2022-10-16T02:45:39;6.80;;;3.27;;
66189;SDS011;52992;52.084;5.412;2022-10-16T02:48:06;5.10;;;3.20;;
66189;SDS011;52992;52.084;5.412;2022-10-16T02:50:33;6.97;;;3.60;;
66189;SDS011;52992;52.084;5.412;2022-10-16T02:53:00;7.17;;;3.67;;
66189;SDS011;52992;52.084;5.412;2022-10-16T02:55:27;5.57;;;3.30;;
66189;SDS011;52992;52.084;5.412;2022-10-16T02:57:54;4.83;;;3.23;;
66189;SDS011;52992;52.084;5.412;2022-10-16T03:00:21;5.57;;;3.10;;
66189;SDS011;52992;52.084;5.412;2022-10-16T03:02:47;3.50;;;2.57;;
66189;SDS011;52992;52.084;5.412;2022-10-16T03:05:14;6.67;;;3.33;;
66189;SDS011;52992;52.084;5.412;2022-10-16T03:07:42;4.93;;;3.27;;
66189;SDS011;52992;52.084;5.412;2022-10-16T03:10:08;5.47;;;3.17;;
66189;SDS011;52992;52.084;5.412;2022-10-16T03:12:35;6.93;;;2.87;;
66189;SDS011;52992;52.084;5.412;2022-10-16T03:15:03;3.87;;;3.03;;
66189;SDS011;52992;52.084;5.412;2022-10-16T03:17:31;4.33;;;2.87;;
66189;SDS011;52992;52.084;5.412;2022-10-16T03:19:58;4.40;;;3.17;;
66189;SDS011;52992;52.084;5.412;2022-10-16T03:22:24;5.73;;;3.67;;
66189;SDS011;52992;52.084;5.412;2022-10-16T03:24:51;6.83;;;3.80;;
66189;SDS011;52992;52.084;5.412;2022-10-16T03:27:18;6.77;;;3.73;;
66189;SDS011;52992;52.084;5.412;2022-10-16T03:29:45;7.57;;;4.10;;
66189;SDS011;52992;52.084;5.412;2022-10-16T03:32:12;9.93;;;3.67;;
66189;SDS011;52992;52.084;5.412;2022-10-16T03:34:39;5.70;;;4.03;;
66189;SDS011;52992;52.084;5.412;2022-10-16T03:37:06;7.67;;;4.07;;
66189;SDS011;52992;52.084;5.412;2022-10-16T03:39:32;5.13;;;3.50;;
66189;SDS011;52992;52.084;5.412;2022-10-16T03:41:59;4.50;;;3.50;;
66189;SDS011;52992;52.084;5.412;2022-10-16T03:44:26;5.20;;;3.20;;
66189;SDS011;52992;52.084;5.412;2022-10-16T03:46:53;3.57;;;2.87;;
66189;SDS011;52992;52.084;5.412;2022-10-16T03:49:19;5.23;;;3.13;;
66189;SDS011;52992;52.084;5.412;2022-10-16T03:51:46;3.87;;;2.90;;
66189;SDS011;52992;52.084;5.412;2022-10-16T03:54:13;5.43;;;2.77;;
66189;SDS011;52992;52.084;5.412;2022-10-16T03:56:40;3.43;;;2.73;;
66189;SDS011;52992;52.084;5.412;2022-10-16T03:59:07;3.63;;;2.50;;
66189;SDS011;52992;52.084;5.412;2022-10-16T04:01:34;3.53;;;2.70;;
66189;SDS011;52992;52.084;5.412;2022-10-16T04:04:01;3.70;;;2.40;;
66189;SDS011;52992;52.084;5.412;2022-10-16T04:06:27;7.53;;;2.70;;
66189;SDS011;52992;52.084;5.412;2022-10-16T04:08:54;3.93;;;2.50;;
66189;SDS011;52992;52.084;5.412;2022-10-16T04:11:21;3.47;;;2.80;;
66189;SDS011;52992;52.084;5.412;2022-10-16T04:13:48;6.50;;;2.97;;
66189;SDS011;52992;52.084;5.412;2022-10-16T04:16:15;3.70;;;2.77;;
66189;SDS011;52992;52.084;5.412;2022-10-16T04:18:42;3.70;;;2.77;;
66189;SDS011;52992;52.084;5.412;2022-10-16T04:21:08;2.63;;;2.40;;
66189;SDS011;52992;52.084;5.412;2022-10-16T04:23:35;3.73;;;2.17;;
66189;SDS011;52992;52.084;5.412;2022-10-16T04:26:02;3.10;;;2.63;;
66189;SDS011;52992;52.084;5.412;2022-10-16T04:28:29;3.33;;;2.30;;
66189;SDS011;52992;52.084;5.412;2022-10-16T04:30:56;2.90;;;2.23;;
66189;SDS011;52992;52.084;5.412;2022-10-16T04:33:22;3.03;;;2.23;;
66189;SDS011;52992;52.084;5.412;2022-10-16T04:35:55;5.13;;;2.60;;
66189;SDS011;52992;52.084;5.412;2022-10-16T04:38:23;4.80;;;2.80;;
66189;SDS011;52992;52.084;5.412;2022-10-16T04:40:50;3.40;;;2.60;;
66189;SDS011;52992;52.084;5.412;2022-10-16T04:43:17;3.67;;;2.47;;
66189;SDS011;52992;52.084;5.412;2022-10-16T04:45:44;5.53;;;2.73;;
66189;SDS011;52992;52.084;5.412;2022-10-16T04:48:11;4.20;;;2.80;;
66189;SDS011;52992;52.084;5.412;2022-10-16T04:50:38;4.73;;;2.70;;
66189;SDS011;52992;52.084;5.412;2022-10-16T04:53:05;6.70;;;2.70;;
66189;SDS011;52992;52.084;5.412;2022-10-16T04:55:33;3.17;;;2.40;;
66189;SDS011;52992;52.084;5.412;2022-10-16T04:58:00;3.43;;;2.67;;
66189;SDS011;52992;52.084;5.412;2022-10-16T05:00:27;2.87;;;2.30;;
66189;SDS011;52992;52.084;5.412;2022-10-16T05:02:54;2.97;;;2.53;;
66189;SDS011;52992;52.084;5.412;2022-10-16T05:05:21;3.17;;;2.47;;
66189;SDS011;52992;52.084;5.412;2022-10-16T05:07:47;3.87;;;2.20;;
66189;SDS011;52992;52.084;5.412;2022-10-16T05:10:15;6.33;;;2.57;;
66189;SDS011;52992;52.084;5.412;2022-10-16T05:12:42;5.67;;;2.60;;
66189;SDS011;52992;52.084;5.412;2022-10-16T05:15:09;3.10;;;2.40;;
66189;SDS011;52992;52.084;5.412;2022-10-16T05:17:36;5.60;;;2.47;;
66189;SDS011;52992;52.084;5.412;2022-10-16T05:20:10;3.73;;;2.50;;
66189;SDS011;52992;52.084;5.412;2022-10-16T05:22:37;4.23;;;2.53;;
66189;SDS011;52992;52.084;5.412;2022-10-16T05:25:04;3.27;;;2.50;;
66189;SDS011;52992;52.084;5.412;2022-10-16T05:27:31;6.57;;;2.57;;
66189;SDS011;52992;52.084;5.412;2022-10-16T05:29:58;2.90;;;2.20;;
66189;SDS011;52992;52.084;5.412;2022-10-16T05:32:25;2.90;;;2.33;;
66189;SDS011;52992;52.084;5.412;2022-10-16T05:34:52;5.67;;;2.67;;
66189;SDS011;52992;52.084;5.412;2022-10-16T05:37:18;3.00;;;2.33;;
66189;SDS011;52992;52.084;5.412;2022-10-16T05:39:45;4.40;;;2.37;;
66189;SDS011;52992;52.084;5.412;2022-10-16T05:42:12;4.70;;;2.60;;
66189;SDS011;52992;52.084;5.412;2022-10-16T05:44:39;4.00;;;2.60;;
66189;SDS011;52992;52.084;5.412;2022-10-16T05:47:05;4.80;;;2.50;;
66189;SDS011;52992;52.084;5.412;2022-10-16T05:49:32;2.80;;;2.40;;
66189;SDS011;52992;52.084;5.412;2022-10-16T05:52:05;2.47;;;2.27;;
66189;SDS011;52992;52.084;5.412;2022-10-16T05:54:32;3.33;;;2.67;;
66189;SDS011;52992;52.084;5.412;2022-10-16T05:56:59;4.43;;;2.70;;
66189;SDS011;52992;52.084;5.412;2022-10-16T05:59:26;3.07;;;2.17;;
66189;SDS011;52992;52.084;5.412;2022-10-16T06:01:53;5.30;;;2.57;;
66189;SDS011;52992;52.084;5.412;2022-10-16T06:04:19;5.63;;;2.57;;
66189;SDS011;52992;52.084;5.412;2022-10-16T06:06:46;4.13;;;2.60;;
66189;SDS011;52992;52.084;5.412;2022-10-16T06:09:13;6.50;;;3.27;;
66189;SDS011;52992;52.084;5.412;2022-10-16T06:11:40;2.57;;;2.20;;
66189;SDS011;52992;52.084;5.412;2022-10-16T06:14:07;4.73;;;2.47;;
66189;SDS011;52992;52.084;5.412;2022-10-16T06:16:35;5.60;;;2.50;;
66189;SDS011;52992;52.084;5.412;2022-10-16T06:19:03;7.60;;;3.00;;
66189;SDS011;52992;52.084;5.412;2022-10-16T06:21:33;5.47;;;2.83;;
66189;SDS011;52992;52.084;5.412;2022-10-16T06:24:00;4.37;;;2.40;;
66189;SDS011;52992;52.084;5.412;2022-10-16T06:26:28;3.73;;;2.57;;
66189;SDS011;52992;52.084;5.412;2022-10-16T06:28:56;4.20;;;2.80;;
66189;SDS011;52992;52.084;5.412;2022-10-16T06:31:25;7.00;;;2.60;;
66189;SDS011;52992;52.084;5.412;2022-10-16T06:33:53;3.37;;;3.07;;
66189;SDS011;52992;52.084;5.412;2022-10-16T06:36:21;2.57;;;2.20;;
66189;SDS011;52992;52.084;5.412;2022-10-16T06:38:49;3.17;;;2.50;;
66189;SDS011;52992;52.084;5.412;2022-10-16T06:41:17;5.87;;;2.67;;
66189;SDS011;52992;52.084;5.412;2022-10-16T06:43:45;4.03;;;2.30;;
66189;SDS011;52992;52.084;5.412;2022-10-16T06:46:14;3.53;;;2.37;;
66189;SDS011;52992;52.084;5.412;2022-10-16T06:48:43;3.80;;;2.63;;
66189;SDS011;52992;52.084;5.412;2022-10-16T06:51:22;4.80;;;2.23;;
66189;SDS011;52992;52.084;5.412;2022-10-16T06:53:51;3.57;;;2.23;;
66189;SDS011;52992;52.084;5.412;2022-10-16T06:56:29;5.27;;;2.70;;
66189;SDS011;52992;52.084;5.412;2022-10-16T06:58:58;4.40;;;2.90;;
66189;SDS011;52992;52.084;5.412;2022-10-16T07:01:25;4.87;;;2.80;;
66189;SDS011;52992;52.084;5.412;2022-10-16T07:03:53;5.33;;;2.63;;
66189;SDS011;52992;52.084;5.412;2022-10-16T07:06:21;5.00;;;2.67;;
66189;SDS011;52992;52.084;5.412;2022-10-16T07:08:49;5.97;;;2.87;;
66189;SDS011;52992;52.084;5.412;2022-10-16T07:11:18;5.30;;;2.80;;
66189;SDS011;52992;52.084;5.412;2022-10-16T07:13:46;6.53;;;2.77;;
66189;SDS011;52992;52.084;5.412;2022-10-16T07:16:21;4.83;;;2.60;;
66189;SDS011;52992;52.084;5.412;2022-10-16T07:18:55;2.77;;;2.40;;
66189;SDS011;52992;52.084;5.412;2022-10-16T07:21:27;4.40;;;2.63;;
66189;SDS011;52992;52.084;5.412;2022-10-16T07:24:02;3.97;;;3.10;;
66189;SDS011;52992;52.084;5.412;2022-10-16T07:26:31;3.00;;;2.70;;
66189;SDS011;52992;52.084;5.412;2022-10-16T07:29:00;5.57;;;2.63;;
66189;SDS011;52992;52.084;5.412;2022-10-16T07:31:27;6.93;;;2.60;;
66189;SDS011;52992;52.084;5.412;2022-10-16T07:33:54;2.57;;;2.20;;
66189;SDS011;52992;52.084;5.412;2022-10-16T07:36:21;4.57;;;2.33;;
66189;SDS011;52992;52.084;5.412;2022-10-16T07:38:48;4.70;;;2.17;;
66189;SDS011;52992;52.084;5.412;2022-10-16T07:41:18;2.50;;;2.30;;
66189;SDS011;52992;52.084;5.412;2022-10-16T07:43:50;4.07;;;2.47;;
66189;SDS011;52992;52.084;5.412;2022-10-16T07:46:19;9.20;;;2.40;;
66189;SDS011;52992;52.084;5.412;2022-10-16T07:48:47;5.27;;;2.90;;
66189;SDS011;52992;52.084;5.412;2022-10-16T07:51:16;5.73;;;3.30;;
66189;SDS011;52992;52.084;5.412;2022-10-16T07:53:44;4.43;;;2.90;;
66189;SDS011;52992;52.084;5.412;2022-10-16T07:56:11;4.20;;;3.00;;
66189;SDS011;52992;52.084;5.412;2022-10-16T07:58:38;5.37;;;2.80;;
66189;SDS011;52992;52.084;5.412;2022-10-16T08:01:06;6.00;;;3.27;;
66189;SDS011;52992;52.084;5.412;2022-10-16T08:03:35;7.87;;;3.20;;
66189;SDS011;52992;52.084;5.412;2022-10-16T08:06:02;3.47;;;2.87;;
66189;SDS011;52992;52.084;5.412;2022-10-16T08:08:30;3.67;;;2.87;;
66189;SDS011;52992;52.084;5.412;2022-10-16T08:10:57;3.90;;;2.60;;
66189;SDS011;52992;52.084;5.412;2022-10-16T08:13:24;3.43;;;3.07;;
66189;SDS011;52992;52.084;5.412;2022-10-16T08:15:53;3.43;;;2.60;;
66189;SDS011;52992;52.084;5.412;2022-10-16T08:18:20;5.90;;;2.67;;
66189;SDS011;52992;52.084;5.412;2022-10-16T08:20:48;3.47;;;2.87;;
66189;SDS011;52992;52.084;5.412;2022-10-16T08:23:21;5.07;;;2.77;;
66189;SDS011;52992;52.084;5.412;2022-10-16T08:25:47;4.80;;;2.33;;
66189;SDS011;52992;52.084;5.412;2022-10-16T08:28:14;5.33;;;2.90;;
66189;SDS011;52992;52.084;5.412;2022-10-16T08:30:42;4.67;;;2.60;;
66189;SDS011;52992;52.084;5.412;2022-10-16T08:33:09;3.83;;;2.77;;
66189;SDS011;52992;52.084;5.412;2022-10-16T08:35:36;4.53;;;2.53;;
66189;SDS011;52992;52.084;5.412;2022-10-16T08:38:04;7.33;;;3.20;;
66189;SDS011;52992;52.084;5.412;2022-10-16T08:40:32;5.07;;;2.60;;
66189;SDS011;52992;52.084;5.412;2022-10-16T08:43:04;5.37;;;2.37;;
66189;SDS011;52992;52.084;5.412;2022-10-16T08:48:53;9.77;;;2.77;;
66189;SDS011;52992;52.084;5.412;2022-10-16T08:51:40;5.20;;;2.43;;
66189;SDS011;52992;52.084;5.412;2022-10-16T08:54:29;3.93;;;2.20;;
66189;SDS011;52992;52.084;5.412;2022-10-16T08:57:07;3.43;;;2.03;;
66189;SDS011;52992;52.084;5.412;2022-10-16T08:59:44;2.93;;;2.00;;
66189;SDS011;52992;52.084;5.412;2022-10-16T09:16:12;8.87;;;2.90;;
66189;SDS011;52992;52.084;5.412;2022-10-16T09:21:44;4.27;;;2.33;;
66189;SDS011;52992;52.084;5.412;2022-10-16T09:24:13;6.67;;;2.47;;
66189;SDS011;52992;52.084;5.412;2022-10-16T09:26:42;4.50;;;2.43;;
66189;SDS011;52992;52.084;5.412;2022-10-16T09:29:13;4.80;;;2.30;;
66189;SDS011;52992;52.084;5.412;2022-10-16T09:31:41;10.57;;;2.43;;
66189;SDS011;52992;52.084;5.412;2022-10-16T09:34:14;7.13;;;2.57;;
66189;SDS011;52992;52.084;5.412;2022-10-16T09:36:51;7.27;;;3.00;;
66189;SDS011;52992;52.084;5.412;2022-10-16T09:39:43;8.93;;;3.00;;
66189;SDS011;52992;52.084;5.412;2022-10-16T09:42:24;6.57;;;2.87;;
66189;SDS011;52992;52.084;5.412;2022-10-16T09:44:54;6.13;;;3.10;;
66189;SDS011;52992;52.084;5.412;2022-10-16T09:47:21;9.17;;;3.30;;
66189;SDS011;52992;52.084;5.412;2022-10-16T09:49:57;7.40;;;2.53;;
66189;SDS011;52992;52.084;5.412;2022-10-16T09:52:32;11.30;;;2.83;;
66189;SDS011;52992;52.084;5.412;2022-10-16T09:55:01;8.37;;;3.33;;
66189;SDS011;52992;52.084;5.412;2022-10-16T09:57:48;7.33;;;2.90;;
66189;SDS011;52992;52.084;5.412;2022-10-16T10:00:16;6.73;;;2.57;;
66189;SDS011;52992;52.084;5.412;2022-10-16T10:02:44;7.50;;;2.67;;
66189;SDS011;52992;52.084;5.412;2022-10-16T10:05:21;12.07;;;3.10;;
66189;SDS011;52992;52.084;5.412;2022-10-16T10:07:55;8.90;;;2.87;;
66189;SDS011;52992;52.084;5.412;2022-10-16T10:10:33;10.33;;;3.30;;
66189;SDS011;52992;52.084;5.412;2022-10-16T10:13:19;12.90;;;3.27;;
66189;SDS011;52992;52.084;5.412;2022-10-16T10:15:47;8.23;;;2.90;;
66189;SDS011;52992;52.084;5.412;2022-10-16T10:18:15;4.67;;;2.00;;
66189;SDS011;52992;52.084;5.412;2022-10-16T10:20:59;8.20;;;2.53;;
66189;SDS011;52992;52.084;5.412;2022-10-16T10:23:27;8.50;;;2.43;;
66189;SDS011;52992;52.084;5.412;2022-10-16T10:31:29;10.37;;;2.63;;
66189;SDS011;52992;52.084;5.412;2022-10-16T10:37:13;8.67;;;2.83;;
66189;SDS011;52992;52.084;5.412;2022-10-16T10:39:43;6.00;;;2.33;;
66189;SDS011;52992;52.084;5.412;2022-10-16T10:42:27;7.13;;;2.90;;
66189;SDS011;52992;52.084;5.412;2022-10-16T10:50:46;5.60;;;2.60;;
66189;SDS011;52992;52.084;5.412;2022-10-16T10:53:55;3.20;;;1.80;;
66189;SDS011;52992;52.084;5.412;2022-10-16T11:11:25;8.40;;;2.10;;
66189;SDS011;52992;52.084;5.412;2022-10-16T11:14:04;9.23;;;3.03;;
66189;SDS011;52992;52.084;5.412;2022-10-16T11:16:54;8.63;;;2.67;;
66189;SDS011;52992;52.084;5.412;2022-10-16T11:19:44;9.23;;;2.50;;
66189;SDS011;52992;52.084;5.412;2022-10-16T11:22:19;3.87;;;1.90;;
66189;SDS011;52992;52.084;5.412;2022-10-16T11:25:18;7.23;;;2.27;;
66189;SDS011;52992;52.084;5.412;2022-10-16T11:27:57;8.33;;;2.97;;
66189;SDS011;52992;52.084;5.412;2022-10-16T11:33:43;6.13;;;1.93;;
66189;SDS011;52992;52.084;5.412;2022-10-16T11:38:51;6.27;;;1.70;;
66189;SDS011;52992;52.084;5.412;2022-10-16T11:53:37;7.03;;;1.73;;
66189;SDS011;52992;52.084;5.412;2022-10-16T11:56:23;9.23;;;2.57;;
66189;SDS011;52992;52.084;5.412;2022-10-16T12:01:47;4.43;;;2.00;;
66189;SDS011;52992;52.084;5.412;2022-10-16T12:07:02;6.53;;;1.80;;
66189;SDS011;52992;52.084;5.412;2022-10-16T12:09:36;6.67;;;1.80;;
66189;SDS011;52992;52.084;5.412;2022-10-16T12:12:23;6.83;;;2.30;;
66189;SDS011;52992;52.084;5.412;2022-10-16T12:15:23;7.23;;;1.90;;
66189;SDS011;52992;52.084;5.412;2022-10-16T12:18:22;6.40;;;1.57;;
66189;SDS011;52992;52.084;5.412;2022-10-16T12:20:57;6.67;;;2.10;;
66189;SDS011;52992;52.084;5.412;2022-10-16T12:23:25;5.17;;;1.43;;
66189;SDS011;52992;52.084;5.412;2022-10-16T12:25:56;5.50;;;1.57;;
66189;SDS011;52992;52.084;5.412;2022-10-16T12:28:31;6.43;;;2.17;;
66189;SDS011;52992;52.084;5.412;2022-10-16T12:31:06;5.23;;;1.70;;
66189;SDS011;52992;52.084;5.412;2022-10-16T12:33:42;5.23;;;1.40;;
66189;SDS011;52992;52.084;5.412;2022-10-16T12:36:28;8.67;;;2.60;;
66189;SDS011;52992;52.084;5.412;2022-10-16T12:38:59;8.33;;;2.03;;
66189;SDS011;52992;52.084;5.412;2022-10-16T12:43:59;5.20;;;1.67;;
66189;SDS011;52992;52.084;5.412;2022-10-16T12:49:20;10.63;;;2.23;;
66189;SDS011;52992;52.084;5.412;2022-10-16T12:51:47;6.37;;;1.33;;
66189;SDS011;52992;52.084;5.412;2022-10-16T12:54:19;10.10;;;2.00;;
66189;SDS011;52992;52.084;5.412;2022-10-16T13:10:37;4.93;;;1.90;;
66189;SDS011;52992;52.084;5.412;2022-10-16T13:16:09;6.80;;;1.80;;
66189;SDS011;52992;52.084;5.412;2022-10-16T13:18:56;6.83;;;2.57;;
66189;SDS011;52992;52.084;5.412;2022-10-16T13:27:45;9.50;;;2.23;;
66189;SDS011;52992;52.084;5.412;2022-10-16T13:30:00;6.90;;;2.23;;
66189;SDS011;52992;52.084;5.412;2022-10-16T13:32:34;6.37;;;1.87;;
66189;SDS011;52992;52.084;5.412;2022-10-16T13:35:01;5.60;;;1.80;;
66189;SDS011;52992;52.084;5.412;2022-10-16T13:37:30;6.30;;;2.40;;
66189;SDS011;52992;52.084;5.412;2022-10-16T13:42:47;8.57;;;1.67;;
66189;SDS011;52992;52.084;5.412;2022-10-16T13:45:21;6.93;;;1.93;;
66189;SDS011;52992;52.084;5.412;2022-10-16T13:48:09;6.23;;;2.17;;
66189;SDS011;52992;52.084;5.412;2022-10-16T13:50:39;12.10;;;2.97;;
66189;SDS011;52992;52.084;5.412;2022-10-16T13:53:07;6.30;;;2.10;;
66189;SDS011;52992;52.084;5.412;2022-10-16T13:55:39;6.17;;;1.70;;
66189;SDS011;52992;52.084;5.412;2022-10-16T13:58:13;8.43;;;2.03;;
66189;SDS011;52992;52.084;5.412;2022-10-16T14:00:41;8.47;;;2.00;;
66189;SDS011;52992;52.084;5.412;2022-10-16T14:03:21;8.83;;;2.07;;
66189;SDS011;52992;52.084;5.412;2022-10-16T14:05:52;8.00;;;1.87;;
66189;SDS011;52992;52.084;5.412;2022-10-16T14:08:21;6.17;;;1.50;;
66189;SDS011;52992;52.084;5.412;2022-10-16T14:10:50;4.47;;;1.90;;
66189;SDS011;52992;52.084;5.412;2022-10-16T14:13:30;8.07;;;1.93;;
66189;SDS011;52992;52.084;5.412;2022-10-16T14:16:05;9.70;;;1.90;;
66189;SDS011;52992;52.084;5.412;2022-10-16T14:18:34;6.83;;;1.90;;
66189;SDS011;52992;52.084;5.412;2022-10-16T14:21:07;9.07;;;2.27;;
66189;SDS011;52992;52.084;5.412;2022-10-16T14:23:40;6.33;;;1.67;;
66189;SDS011;52992;52.084;5.412;2022-10-16T14:28:40;5.13;;;1.87;;
66189;SDS011;52992;52.084;5.412;2022-10-16T14:34:02;6.90;;;2.47;;
66189;SDS011;52992;52.084;5.412;2022-10-16T14:36:30;9.47;;;1.77;;
66189;SDS011;52992;52.084;5.412;2022-10-16T14:39:13;5.50;;;1.67;;
66189;SDS011;52992;52.084;5.412;2022-10-16T14:41:48;6.17;;;2.00;;
66189;SDS011;52992;52.084;5.412;2022-10-16T14:44:19;7.10;;;2.00;;
66189;SDS011;52992;52.084;5.412;2022-10-16T14:46:50;5.77;;;2.00;;
66189;SDS011;52992;52.084;5.412;2022-10-16T14:49:17;4.17;;;1.53;;
66189;SDS011;52992;52.084;5.412;2022-10-16T14:51:48;8.80;;;2.40;;
66189;SDS011;52992;52.084;5.412;2022-10-16T14:54:16;4.87;;;1.80;;
66189;SDS011;52992;52.084;5.412;2022-10-16T14:59:13;9.67;;;2.50;;
66189;SDS011;52992;52.084;5.412;2022-10-16T15:01:44;9.17;;;2.07;;
66189;SDS011;52992;52.084;5.412;2022-10-16T15:04:12;5.70;;;1.60;;
66189;SDS011;52992;52.084;5.412;2022-10-16T15:06:40;6.47;;;2.20;;
66189;SDS011;52992;52.084;5.412;2022-10-16T15:09:07;6.57;;;1.93;;
66189;SDS011;52992;52.084;5.412;2022-10-16T15:11:34;4.43;;;1.60;;
66189;SDS011;52992;52.084;5.412;2022-10-16T15:14:02;5.50;;;1.60;;
66189;SDS011;52992;52.084;5.412;2022-10-16T15:16:30;6.07;;;1.93;;
66189;SDS011;52992;52.084;5.412;2022-10-16T15:18:57;9.53;;;2.30;;
66189;SDS011;52992;52.084;5.412;2022-10-16T15:21:25;11.07;;;1.80;;
66189;SDS011;52992;52.084;5.412;2022-10-16T15:23:54;8.03;;;1.80;;
66189;SDS011;52992;52.084;5.412;2022-10-16T15:26:26;5.17;;;1.70;;
66189;SDS011;52992;52.084;5.412;2022-10-16T15:28:54;8.53;;;1.90;;
66189;SDS011;52992;52.084;5.412;2022-10-16T15:31:21;4.77;;;2.00;;
66189;SDS011;52992;52.084;5.412;2022-10-16T15:33:49;8.90;;;2.13;;
66189;SDS011;52992;52.084;5.412;2022-10-16T15:36:26;5.13;;;2.40;;
66189;SDS011;52992;52.084;5.412;2022-10-16T15:38:54;4.70;;;2.00;;
66189;SDS011;52992;52.084;5.412;2022-10-16T15:41:21;4.03;;;1.67;;
66189;SDS011;52992;52.084;5.412;2022-10-16T15:43:49;8.37;;;2.07;;
66189;SDS011;52992;52.084;5.412;2022-10-16T15:46:20;4.87;;;2.20;;
66189;SDS011;52992;52.084;5.412;2022-10-16T15:48:48;6.70;;;1.90;;
66189;SDS011;52992;52.084;5.412;2022-10-16T15:51:16;6.13;;;1.87;;
66189;SDS011;52992;52.084;5.412;2022-10-16T15:53:43;8.80;;;2.60;;
66189;SDS011;52992;52.084;5.412;2022-10-16T15:56:13;6.87;;;2.13;;
66189;SDS011;52992;52.084;5.412;2022-10-16T15:58:41;6.40;;;1.77;;
66189;SDS011;52992;52.084;5.412;2022-10-16T16:01:09;6.40;;;1.90;;
66189;SDS011;52992;52.084;5.412;2022-10-16T16:03:37;10.63;;;1.90;;
66189;SDS011;52992;52.084;5.412;2022-10-16T16:06:07;5.40;;;2.63;;
66189;SDS011;52992;52.084;5.412;2022-10-16T16:08:35;6.33;;;2.60;;
66189;SDS011;52992;52.084;5.412;2022-10-16T16:11:04;10.93;;;3.47;;
66189;SDS011;52992;52.084;5.412;2022-10-16T16:13:32;7.20;;;2.47;;
66189;SDS011;52992;52.084;5.412;2022-10-16T16:15:59;5.97;;;2.23;;
66189;SDS011;52992;52.084;5.412;2022-10-16T16:18:26;10.83;;;2.60;;
66189;SDS011;52992;52.084;5.412;2022-10-16T16:20:54;6.70;;;2.37;;
66189;SDS011;52992;52.084;5.412;2022-10-16T16:23:21;12.30;;;2.43;;
66189;SDS011;52992;52.084;5.412;2022-10-16T16:28:31;8.07;;;2.27;;
66189;SDS011;52992;52.084;5.412;2022-10-16T16:30:59;3.77;;;2.13;;
66189;SDS011;52992;52.084;5.412;2022-10-16T16:33:25;4.27;;;1.57;;
66189;SDS011;52992;52.084;5.412;2022-10-16T16:35:56;6.93;;;2.20;;
66189;SDS011;52992;52.084;5.412;2022-10-16T16:38:24;5.77;;;2.50;;
66189;SDS011;52992;52.084;5.412;2022-10-16T16:40:52;7.20;;;2.37;;
66189;SDS011;52992;52.084;5.412;2022-10-16T16:43:25;8.60;;;2.10;;
66189;SDS011;52992;52.084;5.412;2022-10-16T16:45:53;9.10;;;3.17;;
66189;SDS011;52992;52.084;5.412;2022-10-16T16:48:21;7.93;;;3.23;;
66189;SDS011;52992;52.084;5.412;2022-10-16T16:50:48;11.63;;;3.70;;
66189;SDS011;52992;52.084;5.412;2022-10-16T16:53:14;8.07;;;3.30;;
66189;SDS011;52992;52.084;5.412;2022-10-16T16:55:41;9.03;;;2.73;;
66189;SDS011;52992;52.084;5.412;2022-10-16T16:58:08;5.33;;;2.23;;
66189;SDS011;52992;52.084;5.412;2022-10-16T17:00:35;11.30;;;2.40;;
66189;SDS011;52992;52.084;5.412;2022-10-16T17:03:02;7.87;;;2.47;;
66189;SDS011;52992;52.084;5.412;2022-10-16T17:05:29;7.50;;;2.63;;
66189;SDS011;52992;52.084;5.412;2022-10-16T17:07:55;9.13;;;2.37;;
66189;SDS011;52992;52.084;5.412;2022-10-16T17:10:22;6.90;;;2.50;;
66189;SDS011;52992;52.084;5.412;2022-10-16T17:12:49;7.90;;;2.23;;
66189;SDS011;52992;52.084;5.412;2022-10-16T17:15:16;16.23;;;8.43;;
66189;SDS011;52992;52.084;5.412;2022-10-16T17:17:43;23.13;;;12.43;;
66189;SDS011;52992;52.084;5.412;2022-10-16T17:20:10;16.10;;;8.77;;
66189;SDS011;52992;52.084;5.412;2022-10-16T17:22:36;14.63;;;7.07;;